Time;durP1;ratioP1;P1;durP2;ratioP2;P2;SDS_P1;SDS_P2;PMS_P1;PMS_P2;Temp;Humidity;BMP_temperature;BMP_pressure;BME280_temperature;BME280_humidity;BME280_pressure;Samples;Min_cycle;Max_cycle;Signal;HPM_P1;HPM_P2
2022/10/13 00:01:28;;;;;;;25.73;8.43;;;12.60;99.90;;;;;;6224440;28;20050;-79
2022/10/13 00:04:31;;;;;;;17.13;6.82;;;12.50;99.90;;;;;;6223842;28;20053;-79
2022/10/13 00:07:33;;;;;;;13.70;6.15;;;12.40;99.90;;;;;;6223833;28;20061;-79
2022/10/13 00:10:37;;;;;;;14.85;6.20;;;12.30;99.90;;;;;;6223779;28;20038;-79
2022/10/13 00:13:39;;;;;;;20.35;6.75;;;12.20;99.90;;;;;;6224325;28;20538;-78
2022/10/13 00:16:41;;;;;;;13.30;8.75;;;12.10;99.90;;;;;;6223769;28;20689;-78
2022/10/13 00:19:44;;;;;;;16.88;6.78;;;12.00;99.90;;;;;;6223623;28;20042;-79
2022/10/13 00:22:45;;;;;;;17.67;6.53;;;11.90;99.90;;;;;;6223944;28;20519;-79
2022/10/13 00:25:48;;;;;;;12.55;7.00;;;11.80;99.90;;;;;;6223377;28;20049;-78
2022/10/13 00:28:50;;;;;;;14.50;7.47;;;11.70;99.90;;;;;;6222196;28;20048;-79
2022/10/13 00:31:52;;;;;;;20.80;7.63;;;11.70;99.90;;;;;;6223396;28;20519;-78
2022/10/13 00:34:56;;;;;;;16.13;7.85;;;11.70;99.90;;;;;;6223628;28;20042;-79
2022/10/13 00:37:58;;;;;;;19.13;7.38;;;11.60;99.90;;;;;;6222973;28;20050;-79
2022/10/13 00:40:59;;;;;;;19.17;8.27;;;11.60;99.90;;;;;;6232787;28;20046;-79
2022/10/13 00:44:04;;;;;;;24.25;8.30;;;11.60;99.90;;;;;;6247832;28;20045;-78
2022/10/13 00:47:05;;;;;;;16.70;7.78;;;11.50;99.90;;;;;;6245342;28;20053;-78
2022/10/13 00:50:12;;;;;;;13.07;7.47;;;11.50;99.90;;;;;;6247044;28;20045;-79
2022/10/13 00:53:16;;;;;;;29.23;8.15;;;11.40;99.90;;;;;;6247318;28;20041;-79
2022/10/13 00:56:20;;;;;;;17.58;8.88;;;11.40;99.90;;;;;;6246765;28;20516;-79
2022/10/13 00:59:27;;;;;;;20.77;9.38;;;11.40;99.90;;;;;;6247069;28;20056;-79
2022/10/13 01:02:32;;;;;;;27.60;9.70;;;11.40;99.90;;;;;;6246887;28;20450;-81
2022/10/13 01:05:36;;;;;;;17.90;8.43;;;11.50;99.90;;;;;;6246484;28;20045;-80
2022/10/13 01:08:38;;;;;;;21.65;9.35;;;11.60;99.90;;;;;;6246326;28;20483;-79
2022/10/13 01:11:53;;;;;;;26.58;9.77;;;11.70;99.90;;;;;;6246393;28;20049;-78
2022/10/13 01:15:03;;;;;;;19.95;9.07;;;11.80;99.90;;;;;;6247208;28;20053;-79
2022/10/13 01:18:15;;;;;;;15.77;8.25;;;11.90;99.90;;;;;;6246374;28;20046;-79
2022/10/13 01:21:26;;;;;;;23.10;10.45;;;11.90;99.90;;;;;;6246250;28;20056;-80
2022/10/13 01:24:43;;;;;;;17.30;7.43;;;11.80;99.90;;;;;;6247093;28;20049;-80
2022/10/13 01:28:00;;;;;;;15.77;7.85;;;11.80;99.90;;;;;;6247294;28;20053;-80
2022/10/13 01:31:10;;;;;;;22.67;9.13;;;11.90;99.90;;;;;;6247470;28;20431;-80
2022/10/13 01:34:20;;;;;;;18.02;9.48;;;12.00;99.90;;;;;;6246827;28;20056;-79
2022/10/13 01:37:29;;;;;;;22.40;8.35;;;12.10;99.90;;;;;;6246586;28;20056;-79
2022/10/13 01:40:38;;;;;;;28.27;10.73;;;12.20;99.90;;;;;;6242278;28;20046;-80
2022/10/13 01:43:43;;;;;;;18.65;8.52;;;12.30;99.90;;;;;;6229737;28;20523;-79
2022/10/13 01:46:48;;;;;;;33.58;9.50;;;12.30;99.90;;;;;;6222736;28;20524;-80
2022/10/13 01:49:51;;;;;;;27.35;10.52;;;12.30;99.90;;;;;;6221628;28;20064;-80
2022/10/13 01:52:54;;;;;;;35.17;9.90;;;12.40;99.90;;;;;;6222126;28;20053;-80
2022/10/13 01:55:58;;;;;;;20.83;9.65;;;12.40;99.90;;;;;;6221694;28;20543;-80
2022/10/13 01:59:04;;;;;;;25.30;9.82;;;12.50;99.90;;;;;;6225532;28;20061;-81
2022/10/13 02:02:15;;;;;;;24.45;9.35;;;12.50;99.90;;;;;;6225157;28;20061;-80
2022/10/13 02:05:26;;;;;;;22.27;9.00;;;12.70;99.90;;;;;;6224488;28;20050;-80
2022/10/13 02:08:33;;;;;;;30.25;8.30;;;12.70;99.90;;;;;;6224518;28;20050;-80
2022/10/13 02:11:35;;;;;;;20.88;8.82;;;12.80;99.90;;;;;;6225657;28;20053;-80
2022/10/13 02:14:41;;;;;;;26.27;12.02;;;12.80;99.90;;;;;;6225593;28;20057;-80
2022/10/13 02:17:44;;;;;;;31.50;8.93;;;12.80;99.90;;;;;;6224211;28;20508;-80
2022/10/13 02:20:47;;;;;;;23.42;11.68;;;12.80;99.90;;;;;;6224930;28;20046;-80
2022/10/13 02:23:49;;;;;;;27.48;9.05;;;12.80;99.90;;;;;;6228256;28;20149;-79
2022/10/13 02:26:51;;;;;;;22.42;11.25;;;12.80;99.90;;;;;;6226204;28;20062;-79
2022/10/13 02:29:55;;;;;;;17.75;7.68;;;12.80;99.90;;;;;;6225947;28;20057;-79
2022/10/13 02:32:58;;;;;;;14.32;7.72;;;12.90;99.90;;;;;;6226342;28;20050;-79
2022/10/13 02:35:59;;;;;;;22.58;9.63;;;12.90;99.90;;;;;;6226076;28;20053;-79
2022/10/13 02:39:01;;;;;;;21.35;8.25;;;12.90;99.90;;;;;;6226283;28;20052;-78
2022/10/13 02:42:03;;;;;;;16.42;7.70;;;12.90;99.90;;;;;;6231328;28;20120;-79
2022/10/13 02:45:06;;;;;;;14.93;7.43;;;12.90;99.90;;;;;;6229872;28;20065;-79
2022/10/13 02:48:09;;;;;;;14.63;7.15;;;13.00;99.90;;;;;;6225878;28;20070;-79
2022/10/13 02:51:10;;;;;;;17.65;7.72;;;13.10;99.90;;;;;;6226572;28;20053;-79
2022/10/13 02:54:12;;;;;;;20.58;8.35;;;13.00;99.90;;;;;;6225795;28;20053;-79
2022/10/13 02:57:14;;;;;;;22.50;7.78;;;13.00;99.90;;;;;;6227492;28;20046;-81
2022/10/13 03:00:16;;;;;;;14.13;6.63;;;13.00;99.90;;;;;;6225397;28;20058;-80
2022/10/13 03:03:19;;;;;;;17.17;7.80;;;13.00;99.90;;;;;;6226048;28;20054;-78
2022/10/13 03:06:21;;;;;;;11.60;6.25;;;12.90;99.90;;;;;;6224766;28;20042;-79
2022/10/13 03:09:23;;;;;;;19.63;7.05;;;12.90;99.90;;;;;;6223649;28;20057;-78
2022/10/13 03:12:25;;;;;;;17.13;7.75;;;12.90;99.90;;;;;;6223815;28;20046;-78
2022/10/13 03:15:26;;;;;;;16.58;7.63;;;12.90;99.90;;;;;;6224840;28;20057;-79
2022/10/13 03:18:30;;;;;;;14.55;6.85;;;13.00;99.90;;;;;;6226635;28;20428;-79
2022/10/13 03:21:31;;;;;;;14.45;6.57;;;13.10;99.90;;;;;;6226738;28;20534;-79
2022/10/13 03:24:33;;;;;;;18.60;6.80;;;13.20;99.90;;;;;;6228251;28;20049;-79
2022/10/13 03:27:35;;;;;;;10.90;6.32;;;13.20;99.90;;;;;;6224813;28;20431;-80
2022/10/13 03:30:36;;;;;;;18.05;6.82;;;13.10;99.90;;;;;;6224690;28;20495;-78
2022/10/13 03:33:40;;;;;;;12.35;5.88;;;13.00;99.90;;;;;;6223544;28;20046;-79
2022/10/13 03:36:41;;;;;;;17.13;7.00;;;12.90;99.90;;;;;;6224739;28;20065;-79
2022/10/13 03:39:43;;;;;;;11.82;6.72;;;12.90;99.90;;;;;;6224093;28;20049;-78
2022/10/13 03:42:45;;;;;;;16.55;7.20;;;12.90;99.90;;;;;;6230989;28;20045;-79
2022/10/13 03:45:55;;;;;;;20.35;6.30;;;13.00;99.90;;;;;;6244113;28;20045;-79
2022/10/13 03:48:58;;;;;;;18.48;6.07;;;13.00;99.90;;;;;;6247300;28;20049;-80
2022/10/13 03:51:59;;;;;;;11.73;5.90;;;13.00;99.90;;;;;;6249442;28;20515;-78
2022/10/13 03:55:01;;;;;;;12.35;6.07;;;13.00;99.90;;;;;;6249239;28;20049;-78
2022/10/13 03:58:03;;;;;;;14.90;7.30;;;13.00;99.90;;;;;;6249130;28;20169;-80
2022/10/13 04:01:05;;;;;;;12.63;7.13;;;13.00;99.90;;;;;;6247343;28;20049;-79
2022/10/13 04:04:11;;;;;;;15.38;7.30;;;13.00;99.90;;;;;;6248326;28;20052;-79
2022/10/13 04:07:12;;;;;;;19.10;7.95;;;13.10;99.90;;;;;;6249537;28;20100;-78
2022/10/13 04:10:14;;;;;;;22.73;7.05;;;13.10;99.90;;;;;;6247590;28;20041;-78
2022/10/13 04:13:16;;;;;;;15.30;7.28;;;13.10;99.90;;;;;;6248151;28;20499;-78
2022/10/13 04:16:19;;;;;;;10.60;6.75;;;13.10;99.90;;;;;;6248366;28;20061;-79
2022/10/13 04:19:22;;;;;;;13.18;6.72;;;13.10;99.90;;;;;;6250517;28;20054;-79
2022/10/13 04:22:24;;;;;;;14.23;6.47;;;13.10;99.90;;;;;;6249731;28;20284;-78
2022/10/13 04:25:26;;;;;;;19.50;6.07;;;13.00;99.90;;;;;;6249090;28;20049;-79
2022/10/13 04:28:28;;;;;;;11.82;6.32;;;13.00;99.90;;;;;;6248930;28;20443;-79
2022/10/13 04:31:30;;;;;;;13.85;6.47;;;12.90;99.90;;;;;;6249353;28;20049;-79
2022/10/13 04:34:33;;;;;;;14.13;6.05;;;12.90;99.90;;;;;;6249141;28;20046;-79
2022/10/13 04:37:35;;;;;;;16.60;5.78;;;12.80;99.90;;;;;;6249353;28;20045;-79
2022/10/13 04:40:37;;;;;;;16.13;6.35;;;12.80;99.90;;;;;;6248297;28;20049;-78
2022/10/13 04:43:38;;;;;;;16.92;6.32;;;12.90;99.90;;;;;;6242076;28;20159;-78
2022/10/13 04:46:40;;;;;;;12.48;7.30;;;13.00;99.90;;;;;;6244611;28;20431;-78
2022/10/13 04:49:43;;;;;;;15.45;7.20;;;13.00;99.90;;;;;;6247942;28;20056;-79
2022/10/13 04:52:45;;;;;;;17.08;7.82;;;13.10;99.90;;;;;;6246566;28;20052;-79
2022/10/13 04:55:46;;;;;;;9.75;6.05;;;13.10;99.90;;;;;;6248112;28;20057;-78
2022/10/13 04:58:48;;;;;;;19.20;7.32;;;13.10;99.90;;;;;;6248307;28;20049;-79
2022/10/13 05:01:50;;;;;;;14.73;7.68;;;13.10;99.90;;;;;;6249763;28;20067;-78
2022/10/13 05:04:53;;;;;;;13.50;7.47;;;13.10;99.90;;;;;;6248127;28;20104;-80
2022/10/13 05:07:54;;;;;;;12.27;7.10;;;13.10;99.90;;;;;;6248047;28;20450;-80
2022/10/13 05:10:57;;;;;;;24.42;8.32;;;13.00;99.90;;;;;;6250263;28;20053;-80
2022/10/13 05:14:01;;;;;;;15.18;6.13;;;13.00;99.90;;;;;;6251148;28;20056;-80
2022/10/13 05:17:03;;;;;;;18.40;7.82;;;13.00;99.90;;;;;;6249136;28;20063;-79
2022/10/13 05:20:07;;;;;;;14.57;7.13;;;12.90;99.90;;;;;;6249629;28;20403;-80
2022/10/13 05:23:09;;;;;;;12.70;6.47;;;12.80;99.90;;;;;;6251788;28;20064;-80
2022/10/13 05:26:12;;;;;;;16.42;7.22;;;12.70;99.90;;;;;;6251100;28;20068;-81
2022/10/13 05:29:14;;;;;;;16.95;8.02;;;12.50;99.90;;;;;;6250116;28;20045;-79
2022/10/13 05:32:15;;;;;;;13.77;7.82;;;12.40;99.90;;;;;;6248804;28;20056;-80
2022/10/13 05:35:18;;;;;;;19.00;8.05;;;12.20;99.90;;;;;;6248262;28;20056;-79
2022/10/13 05:38:20;;;;;;;16.25;6.75;;;12.20;99.90;;;;;;6247194;28;20045;-79
2022/10/13 05:41:23;;;;;;;15.32;8.05;;;12.20;99.90;;;;;;6250711;28;20049;-79
2022/10/13 05:44:24;;;;;;;19.67;7.65;;;12.20;99.90;;;;;;6246260;28;20642;-79
2022/10/13 05:47:27;;;;;;;15.32;7.50;;;12.30;99.90;;;;;;6231506;28;20054;-79
2022/10/13 05:50:30;;;;;;;12.20;7.57;;;12.30;99.90;;;;;;6224944;28;20456;-79
2022/10/13 05:53:36;;;;;;;20.35;8.93;;;12.30;99.90;;;;;;6225525;28;20435;-79
2022/10/13 05:56:40;;;;;;;16.48;7.45;;;12.40;99.90;;;;;;6224335;28;20519;-80
2022/10/13 05:59:46;;;;;;;21.25;8.07;;;12.50;99.90;;;;;;6228732;28;20050;-79
2022/10/13 06:02:53;;;;;;;12.23;7.75;;;12.50;99.90;;;;;;6229071;28;20439;-79
2022/10/13 06:05:56;;;;;;;21.40;9.68;;;12.60;99.90;;;;;;6230487;28;20049;-79
2022/10/13 06:08:58;;;;;;;20.63;9.48;;;12.70;99.90;;;;;;6228853;28;20050;-79
2022/10/13 06:12:00;;;;;;;19.33;7.80;;;12.80;99.90;;;;;;6229906;28;20049;-79
2022/10/13 06:15:01;;;;;;;19.67;9.32;;;12.90;99.90;;;;;;6230134;28;20050;-79
2022/10/13 06:18:07;;;;;;;18.25;8.07;;;13.00;99.90;;;;;;6229460;28;20042;-79
2022/10/13 06:21:12;;;;;;;18.17;8.82;;;13.20;99.90;;;;;;6229364;28;20508;-79
2022/10/13 06:24:13;;;;;;;16.33;9.85;;;13.20;99.90;;;;;;6229029;28;20061;-79
2022/10/13 06:27:15;;;;;;;16.25;8.05;;;13.30;99.90;;;;;;6229926;28;20053;-79
2022/10/13 06:30:17;;;;;;;15.95;8.48;;;13.30;99.90;;;;;;6229300;28;20385;-79
2022/10/13 06:33:19;;;;;;;16.40;9.05;;;13.40;99.90;;;;;;6229690;28;20045;-79
2022/10/13 06:36:22;;;;;;;16.67;8.80;;;13.50;99.90;;;;;;6228799;28;20515;-79
2022/10/13 06:39:25;;;;;;;21.10;9.27;;;13.70;99.90;;;;;;6228682;28;20045;-79
2022/10/13 06:42:29;;;;;;;22.60;10.05;;;13.80;99.90;;;;;;6229091;28;20037;-79
2022/10/13 06:45:31;;;;;;;23.25;8.48;;;13.90;99.90;;;;;;6232151;28;20133;-80
2022/10/13 06:48:33;;;;;;;17.35;9.30;;;14.00;99.90;;;;;;6245430;28;20580;-80
2022/10/13 06:51:36;;;;;;;15.13;8.68;;;14.10;99.90;;;;;;6253023;28;20136;-79
2022/10/13 06:54:37;;;;;;;17.35;8.55;;;14.10;99.90;;;;;;6253430;28;20041;-80
2022/10/13 06:57:39;;;;;;;16.80;8.13;;;14.20;99.90;;;;;;6253092;28;20060;-79
2022/10/13 07:00:42;;;;;;;19.95;7.60;;;14.20;99.90;;;;;;6253211;28;20045;-79
2022/10/13 07:03:43;;;;;;;17.95;10.13;;;14.30;99.90;;;;;;6252262;28;20666;-79
2022/10/13 07:06:46;;;;;;;17.33;7.25;;;14.30;99.90;;;;;;6222308;28;20056;-79
2022/10/13 07:09:48;;;;;;;16.80;7.93;;;14.40;99.90;;;;;;6273000;28;20044;-80
2022/10/13 07:12:50;;;;;;;16.08;7.07;;;14.50;99.90;;;;;;6231885;28;20057;-80
2022/10/13 07:15:51;;;;;;;19.70;7.90;;;14.50;99.90;;;;;;6242531;28;20045;-80
2022/10/13 07:18:53;;;;;;;20.65;7.35;;;14.60;99.90;;;;;;6277421;28;20048;-80
2022/10/13 07:21:56;;;;;;;14.63;7.03;;;14.70;99.90;;;;;;6276170;28;20052;-80
2022/10/13 07:24:58;;;;;;;23.63;8.73;;;14.90;99.90;;;;;;6276179;28;20431;-81
2022/10/13 07:28:00;;;;;;;20.23;7.97;;;15.00;99.90;;;;;;6275911;28;20105;-81
2022/10/13 07:31:07;;;;;;;12.15;8.05;;;15.20;99.90;;;;;;6275941;28;20056;-80
2022/10/13 07:34:08;;;;;;;19.65;7.88;;;15.30;99.90;;;;;;6276147;28;20056;-80
2022/10/13 07:37:11;;;;;;;17.38;7.35;;;15.50;99.90;;;;;;6267082;28;20049;-81
2022/10/13 07:40:13;;;;;;;14.00;7.28;;;15.60;99.90;;;;;;6254969;28;20049;-80
2022/10/13 07:43:15;;;;;;;13.88;7.28;;;15.70;99.90;;;;;;6250909;28;20053;-80
2022/10/13 07:46:16;;;;;;;14.57;6.97;;;15.80;99.90;;;;;;6248024;28;20041;-80
2022/10/13 07:49:19;;;;;;;14.75;7.15;;;15.90;99.90;;;;;;6247319;28;20053;-80
2022/10/13 07:52:22;;;;;;;10.43;6.13;;;15.90;99.90;;;;;;6253146;28;20054;-80
2022/10/13 07:55:24;;;;;;;11.50;6.40;;;15.90;99.90;;;;;;6256581;28;20060;-81
2022/10/13 07:58:25;;;;;;;13.18;7.05;;;15.90;99.90;;;;;;6253309;28;20164;-81
2022/10/13 08:01:27;;;;;;;18.20;8.18;;;16.10;99.90;;;;;;6252348;28;20044;-80
2022/10/13 08:04:29;;;;;;;16.30;6.95;;;16.20;99.90;;;;;;6258841;28;20389;-80
2022/10/13 08:07:32;;;;;;;13.35;7.38;;;16.30;99.90;;;;;;6268697;28;20199;-80
2022/10/13 08:10:34;;;;;;;19.98;8.18;;;16.30;99.90;;;;;;6227335;28;20053;-80
2022/10/13 08:13:36;;;;;;;16.33;7.63;;;16.40;99.90;;;;;;6227941;28;20053;-80
2022/10/13 08:16:38;;;;;;;11.15;7.30;;;16.50;99.90;;;;;;6227682;28;20050;-80
2022/10/13 08:19:40;;;;;;;16.23;9.32;;;16.50;99.90;;;;;;6227628;28;20061;-80
2022/10/13 08:22:43;;;;;;;15.98;7.13;;;16.70;99.90;;;;;;6228553;28;20061;-80
2022/10/13 08:25:48;;;;;;;18.83;6.68;;;16.80;99.90;;;;;;6225539;28;20527;-81
2022/10/13 08:28:50;;;;;;;11.20;7.07;;;16.80;99.90;;;;;;6228041;28;20056;-80
2022/10/13 08:31:52;;;;;;;11.95;7.70;;;17.00;99.90;;;;;;6225342;28;20056;-80
2022/10/13 08:34:54;;;;;;;24.35;7.60;;;17.00;99.90;;;;;;6226345;28;20054;-81
2022/10/13 08:37:57;;;;;;;17.67;7.07;;;17.20;99.90;;;;;;6257829;28;20041;-81
2022/10/13 08:40:59;;;;;;;14.90;7.13;;;17.40;99.90;;;;;;6275030;28;20041;-81
2022/10/13 08:44:04;;;;;;;17.00;7.18;;;17.50;99.90;;;;;;6274297;28;20060;-80
2022/10/13 08:47:12;;;;;;;14.93;7.88;;;17.70;99.90;;;;;;6269352;28;20074;-81
2022/10/13 08:50:17;;;;;;;13.70;7.33;;;18.00;99.90;;;;;;6242261;28;20050;-81
2022/10/13 08:53:26;;;;;;;16.83;7.35;;;18.10;99.90;;;;;;6250128;28;20049;-80
2022/10/13 08:56:32;;;;;;;12.90;7.53;;;18.30;99.90;;;;;;6249678;28;20536;-81
2022/10/13 08:59:34;;;;;;;20.42;9.13;;;18.30;99.90;;;;;;6249118;28;20495;-80
2022/10/13 09:02:37;;;;;;;14.93;8.10;;;18.30;99.90;;;;;;6247315;28;20034;-80
2022/10/13 09:05:46;;;;;;;16.08;9.13;;;18.30;99.90;;;;;;6251292;28;20041;-81
2022/10/13 09:08:53;;;;;;;20.65;9.60;;;18.20;99.90;;;;;;6265273;28;20049;-81
2022/10/13 09:11:54;;;;;;;25.08;9.02;;;18.20;99.90;;;;;;6274943;28;20132;-81
2022/10/13 09:15:00;;;;;;;25.33;11.13;;;18.20;99.90;;;;;;6277134;28;20064;-81
2022/10/13 09:18:10;;;;;;;21.33;10.23;;;18.20;99.90;;;;;;6276104;28;20057;-81
2022/10/13 09:21:19;;;;;;;22.88;9.93;;;18.20;99.90;;;;;;6275902;28;20069;-80
2022/10/13 09:24:24;;;;;;;18.08;10.15;;;18.20;99.80;;;;;;6275990;28;20086;-80
2022/10/13 09:27:25;;;;;;;19.95;10.18;;;18.30;99.60;;;;;;6275831;28;20048;-80
2022/10/13 09:30:32;;;;;;;19.17;11.00;;;18.20;99.60;;;;;;6275857;28;20055;-80
2022/10/13 09:33:36;;;;;;;20.20;10.20;;;18.30;99.30;;;;;;6276167;28;20060;-81
2022/10/13 09:36:38;;;;;;;22.70;9.90;;;18.40;99.20;;;;;;6273863;28;20056;-80
2022/10/13 09:39:41;;;;;;;17.95;9.93;;;18.30;99.10;;;;;;6266796;28;20049;-81
2022/10/13 09:42:51;;;;;;;23.70;11.05;;;18.30;99.40;;;;;;6273949;28;20048;-80
2022/10/13 09:45:53;;;;;;;33.67;12.60;;;18.30;99.30;;;;;;6273879;28;20051;-80
2022/10/13 09:48:58;;;;;;;22.13;9.65;;;18.30;99.10;;;;;;6257047;28;20076;-80
2022/10/13 09:52:02;;;;;;;19.45;10.13;;;18.30;99.40;;;;;;6226577;28;20050;-81
2022/10/13 09:55:28;;;;;;;15.93;10.02;;;18.30;99.50;;;;;;6225124;28;20053;-81
2022/10/13 09:58:32;;;;;;;21.85;11.25;;;18.40;99.40;;;;;;6223266;28;20052;-80
2022/10/13 10:01:38;;;;;;;23.13;10.02;;;18.40;99.50;;;;;;6224435;28;20049;-80
2022/10/13 10:04:41;;;;;;;20.13;9.52;;;18.70;99.60;;;;;;6224178;28;20049;-80
2022/10/13 10:07:44;;;;;;;16.35;9.43;;;19.00;99.30;;;;;;6255748;28;20095;-80
2022/10/13 10:10:47;;;;;;;18.40;9.68;;;19.30;98.80;;;;;;6277695;28;20057;-81
2022/10/13 10:13:48;;;;;;;17.83;10.13;;;19.40;98.20;;;;;;6273521;28;20057;-81
2022/10/13 10:16:57;;;;;;;20.10;11.00;;;19.30;98.20;;;;;;6273318;28;20051;-80
2022/10/13 10:20:12;;;;;;;27.40;9.55;;;19.30;98.20;;;;;;6273439;28;20052;-79
2022/10/13 10:23:22;;;;;;;24.52;9.73;;;19.50;98.20;;;;;;6274180;28;20045;-80
2022/10/13 10:26:32;;;;;;;16.45;9.32;;;19.70;97.80;;;;;;6270969;28;20045;-80
2022/10/13 10:29:44;;;;;;;20.48;9.40;;;20.20;97.30;;;;;;6270964;28;20056;-80
2022/10/13 10:32:53;;;;;;;22.98;9.52;;;20.50;96.50;;;;;;6271265;28;20055;-80
2022/10/13 10:36:02;;;;;;;20.85;9.73;;;20.70;95.90;;;;;;6269613;28;20049;-80
2022/10/13 10:39:17;;;;;;;18.20;10.30;;;20.90;95.40;;;;;;6262779;28;20049;-80
2022/10/13 10:42:38;;;;;;;27.38;10.95;;;20.90;95.10;;;;;;6271529;28;20120;-80
2022/10/13 10:45:40;;;;;;;23.38;9.52;;;20.80;94.90;;;;;;6275275;28;20056;-79
2022/10/13 10:48:45;;;;;;;20.27;10.02;;;20.60;95.00;;;;;;6275093;28;20426;-80
2022/10/13 10:51:47;;;;;;;17.48;9.75;;;20.40;95.10;;;;;;6244803;28;20071;-81
2022/10/13 10:54:53;;;;;;;24.95;11.32;;;20.30;95.20;;;;;;6250366;28;20407;-80
2022/10/13 10:58:08;;;;;;;18.88;9.85;;;20.30;95.30;;;;;;6250151;28;20053;-80
2022/10/13 11:01:25;;;;;;;16.60;9.50;;;20.30;95.40;;;;;;6250307;28;20053;-81
2022/10/13 11:04:39;;;;;;;25.17;10.02;;;20.40;95.40;;;;;;6257401;28;20499;-81
2022/10/13 11:07:59;;;;;;;18.63;9.15;;;20.50;95.30;;;;;;6265401;28;20658;-80
2022/10/13 11:11:33;;;;;;;21.05;10.25;;;20.60;95.20;;;;;;6276044;28;20057;-80
2022/10/13 11:14:36;;;;;;;25.52;11.45;;;20.60;95.10;;;;;;6248507;28;20057;-80
2022/10/13 11:17:40;;;;;;;17.45;9.48;;;20.50;95.00;;;;;;6250740;28;20057;-81
2022/10/13 11:20:58;;;;;;;21.85;9.93;;;20.50;94.90;;;;;;6253640;28;20050;-80
2022/10/13 11:24:00;;;;;;;19.60;10.32;;;20.40;94.60;;;;;;6252277;28;20099;-80
2022/10/13 11:27:19;;;;;;;18.60;9.95;;;20.20;94.60;;;;;;6252563;28;20049;-82
2022/10/13 11:30:48;;;;;;;18.83;10.93;;;20.10;95.20;;;;;;6250681;28;20045;-81
2022/10/13 11:33:59;;;;;;;18.13;10.27;;;20.00;95.30;;;;;;6251246;28;20049;-82
2022/10/13 11:37:02;;;;;;;26.10;11.13;;;20.10;95.50;;;;;;6260308;28;20053;-81
2022/10/13 11:40:16;;;;;;;21.52;9.98;;;20.20;95.40;;;;;;6273766;28;20056;-81
2022/10/13 11:43:29;;;;;;;18.95;8.63;;;20.40;95.30;;;;;;6277590;28;20041;-81
2022/10/13 11:46:46;;;;;;;22.80;11.25;;;20.70;95.10;;;;;;6277995;28;20053;-81
2022/10/13 11:50:04;;;;;;;16.58;9.48;;;21.20;94.40;;;;;;6276394;28;20056;-81
2022/10/13 11:53:16;;;;;;;20.73;9.55;;;21.50;93.50;;;;;;6253133;28;20523;-81
2022/10/13 11:56:20;;;;;;;17.20;9.50;;;21.60;93.20;;;;;;6252255;28;20052;-82
2022/10/13 11:59:25;;;;;;;19.73;9.32;;;21.90;93.10;;;;;;6255310;28;20053;-82
2022/10/13 12:02:28;;;;;;;14.90;8.55;;;22.00;92.50;;;;;;6254817;28;20061;-82
2022/10/13 12:05:31;;;;;;;19.38;10.52;;;22.00;92.50;;;;;;6251573;28;20535;-82
2022/10/13 12:08:35;;;;;;;24.55;8.75;;;22.00;92.40;;;;;;6253283;28;20057;-83
2022/10/13 12:11:38;;;;;;;14.85;8.48;;;22.10;92.30;;;;;;6252859;28;20060;-82
2022/10/13 12:14:42;;;;;;;23.17;9.38;;;22.20;92.00;;;;;;6253075;28;20159;-82
2022/10/13 12:17:45;;;;;;;18.77;8.68;;;22.30;91.90;;;;;;6252252;28;20412;-82
2022/10/13 12:20:52;;;;;;;19.08;9.27;;;22.20;91.80;;;;;;6252563;28;20515;-82
2022/10/13 12:24:05;;;;;;;;;;;22.20;91.40;;;;;;6253580;28;20483;-82
2022/10/13 12:27:11;;;;;;;13.45;7.97;;;21.90;91.70;;;;;;6253372;28;20012;-83
2022/10/13 12:30:21;;;;;;;18.90;8.80;;;21.80;91.90;;;;;;6252290;28;20052;-83
2022/10/13 12:33:28;;;;;;;26.45;9.85;;;21.50;92.20;;;;;;6252507;28;20104;-82
2022/10/13 12:36:32;;;;;;;19.20;9.15;;;21.50;92.40;;;;;;6261411;28;20064;-83
2022/10/13 12:39:35;;;;;;;17.02;9.48;;;21.30;92.70;;;;;;6263505;28;20052;-81
2022/10/13 12:42:38;;;;;;;21.35;8.45;;;21.20;92.90;;;;;;6277301;28;20064;-82
2022/10/13 12:45:41;;;;;;;16.38;9.13;;;21.00;93.10;;;;;;6279383;28;20044;-82
2022/10/13 12:48:44;;;;;;;25.48;9.32;;;20.70;93.30;;;;;;6277652;28;20041;-82
2022/10/13 12:51:48;;;;;;;18.75;9.85;;;20.50;93.80;;;;;;6268422;28;20045;-83
2022/10/13 12:54:51;;;;;;;19.30;8.43;;;20.30;94.40;;;;;;6230149;28;20133;-82
2022/10/13 12:57:53;;;;;;;16.60;8.25;;;20.40;94.70;;;;;;6248546;28;20056;-82
2022/10/13 13:01:08;;;;;;;16.38;9.00;;;20.60;94.70;;;;;;6276141;28;20056;-81
2022/10/13 13:04:27;;;;;;;18.63;8.30;;;20.60;94.50;;;;;;6273195;28;20041;-81
2022/10/13 13:07:31;;;;;;;23.23;8.80;;;20.70;94.50;;;;;;6251966;28;20491;-81
2022/10/13 13:10:33;;;;;;;14.70;7.75;;;20.70;94.50;;;;;;6251628;28;20128;-81
2022/10/13 13:13:35;;;;;;;15.82;7.97;;;20.60;94.60;;;;;;6251267;28;20041;-81
2022/10/13 13:16:37;;;;;;;19.50;8.32;;;20.60;94.60;;;;;;6250851;28;20053;-81
2022/10/13 13:19:41;;;;;;;142.52;65.05;;;20.70;94.70;;;;;;6250067;28;20393;-81
2022/10/13 13:22:43;;;;;;;17.23;9.80;;;20.70;94.80;;;;;;6251762;28;20412;-81
2022/10/13 13:25:44;;;;;;;16.60;9.27;;;20.60;95.00;;;;;;6250710;28;20511;-81
2022/10/13 13:28:48;;;;;;;24.48;8.23;;;20.60;94.70;;;;;;6250289;28;20077;-81
2022/10/13 13:31:50;;;;;;;18.63;7.65;;;20.60;94.60;;;;;;6250092;28;20056;-81
2022/10/13 13:34:53;;;;;;;15.90;7.53;;;20.60;94.60;;;;;;6250758;28;20053;-82
2022/10/13 13:37:54;;;;;;;20.77;7.15;;;20.70;94.80;;;;;;6261699;28;20729;-81
2022/10/13 13:40:56;;;;;;;19.65;9.02;;;20.70;94.80;;;;;;6275331;28;20055;-81
2022/10/13 13:43:58;;;;;;;18.90;10.40;;;21.00;94.70;;;;;;6275719;28;20057;-81
2022/10/13 13:46:59;;;;;;;19.90;10.55;;;21.10;94.70;;;;;;6276300;28;20048;-81
2022/10/13 13:50:02;;;;;;;16.45;10.73;;;21.30;94.40;;;;;;6274857;28;20146;-81
2022/10/13 13:53:05;;;;;;;13.23;6.05;;;21.30;94.20;;;;;;6256864;28;20428;-81
2022/10/13 13:56:11;;;;;;;11.70;6.43;;;21.30;94.00;;;;;;6246441;28;20048;-81
2022/10/13 13:59:13;;;;;;;18.33;6.60;;;21.20;94.10;;;;;;6250970;28;20064;-81
2022/10/13 14:02:17;;;;;;;13.07;6.43;;;21.20;94.30;;;;;;6250628;28;20049;-81
2022/10/13 14:05:20;;;;;;;14.57;6.32;;;21.20;94.30;;;;;;6250037;28;20049;-81
2022/10/13 14:08:22;;;;;;;7.53;5.50;;;21.20;94.20;;;;;;6265258;28;20049;-82
2022/10/13 14:11:23;;;;;;;26.23;6.60;;;21.10;94.30;;;;;;6276734;28;20053;-81
2022/10/13 14:14:25;;;;;;;22.48;7.05;;;21.00;94.40;;;;;;6274994;28;20078;-81
2022/10/13 14:17:27;;;;;;;11.05;6.28;;;20.90;94.50;;;;;;6275758;28;20059;-81
2022/10/13 14:20:30;;;;;;;22.42;7.28;;;20.80;94.70;;;;;;6279408;28;20107;-81
2022/10/13 14:23:32;;;;;;;17.35;6.70;;;20.70;95.00;;;;;;6279874;28;20049;-81
2022/10/13 14:26:34;;;;;;;11.40;5.57;;;20.50;95.20;;;;;;6279051;28;20536;-81
2022/10/13 14:29:36;;;;;;;18.80;6.00;;;20.40;95.60;;;;;;6281929;28;20120;-81
2022/10/13 14:32:37;;;;;;;15.57;7.05;;;20.30;95.80;;;;;;6280317;28;20075;-83
2022/10/13 14:35:40;;;;;;;17.02;6.63;;;20.30;96.00;;;;;;6279021;28;20061;-82
2022/10/13 14:38:42;;;;;;;18.17;6.70;;;20.30;96.00;;;;;;6271369;28;20053;-81
2022/10/13 14:41:44;;;;;;;12.20;6.00;;;20.20;96.30;;;;;;6278788;28;20530;-81
2022/10/13 14:44:46;;;;;;;16.40;5.75;;;20.20;96.40;;;;;;6278762;28;20109;-81
2022/10/13 14:47:47;;;;;;;12.73;6.40;;;20.10;96.60;;;;;;6278111;28;20116;-81
2022/10/13 14:50:50;;;;;;;25.08;6.15;;;20.20;96.50;;;;;;6278954;28;20049;-80
2022/10/13 14:53:52;;;;;;;18.73;6.57;;;20.20;96.70;;;;;;6266183;28;20057;-81
2022/10/13 14:56:54;;;;;;;20.10;6.72;;;20.20;96.80;;;;;;6255816;28;20421;-84
2022/10/13 14:59:56;;;;;;;23.48;8.25;;;20.10;96.90;;;;;;6255407;28;20134;-82
2022/10/13 15:02:57;;;;;;;16.05;6.03;;;20.10;97.10;;;;;;6256799;28;20053;-82
2022/10/13 15:06:00;;;;;;;10.63;4.80;;;20.10;97.20;;;;;;6259788;28;20426;-83
2022/10/13 15:09:02;;;;;;;19.02;6.10;;;20.20;97.20;;;;;;6272000;28;20060;-82
2022/10/13 15:12:05;;;;;;;16.63;7.57;;;20.10;97.00;;;;;;6260468;28;20176;-82
2022/10/13 15:15:07;;;;;;;12.85;6.38;;;20.10;96.90;;;;;;6257711;28;20077;-82
2022/10/13 15:18:09;;;;;;;12.65;6.25;;;20.10;96.80;;;;;;6260496;28;20041;-82
2022/10/13 15:21:12;;;;;;;18.75;6.40;;;20.10;97.00;;;;;;6255453;28;20081;-82
2022/10/13 15:24:14;;;;;;;17.05;6.47;;;20.00;97.10;;;;;;6254179;28;20056;-82
2022/10/13 15:27:16;;;;;;;17.00;6.10;;;20.00;97.10;;;;;;6254664;28;20045;-81
2022/10/13 15:30:18;;;;;;;10.07;6.00;;;19.90;97.20;;;;;;6254727;28;20049;-82
2022/10/13 15:33:20;;;;;;;15.90;6.47;;;20.00;97.40;;;;;;6254955;28;20618;-82
2022/10/13 15:36:24;;;;;;;14.80;5.70;;;19.90;97.50;;;;;;6261848;28;20436;-82
2022/10/13 15:39:25;;;;;;;16.58;6.40;;;20.10;97.60;;;;;;6271812;28;20130;-82
2022/10/13 15:42:27;;;;;;;14.38;5.88;;;20.10;97.60;;;;;;6279293;28;20076;-81
2022/10/13 15:45:29;;;;;;;13.07;5.50;;;20.10;97.60;;;;;;6278439;28;20059;-83